createdAt,value
2022-09-24T00:01:15.253Z,10.97
2022-09-24T00:03:45.817Z,11.33
2022-09-24T00:06:15.129Z,11.33
2022-09-24T00:08:44.839Z,11.10
2022-09-24T00:11:14.141Z,10.73
2022-09-24T00:13:42.820Z,11.73
2022-09-24T00:16:12.538Z,9.97
2022-09-24T00:18:41.487Z,11.17
2022-09-24T00:21:13.643Z,12.30
2022-09-24T00:23:44.840Z,11.33
2022-09-24T00:26:32.777Z,10.77
2022-09-24T00:29:01.271Z,10.40
2022-09-24T00:31:29.695Z,10.17
2022-09-24T00:33:59.380Z,10.07
2022-09-24T00:36:27.769Z,9.43
2022-09-24T00:38:57.093Z,10.73
2022-09-24T00:41:28.668Z,10.50
2022-09-24T00:43:57.015Z,11.30
2022-09-24T00:46:27.506Z,11.40
2022-09-24T00:48:57.419Z,9.80
2022-09-24T00:51:27.077Z,10.80
2022-09-24T00:53:58.169Z,10.63
2022-09-24T00:56:29.097Z,9.80
2022-09-24T00:58:58.892Z,10.67
2022-09-24T01:01:27.435Z,10.90
2022-09-24T01:03:57.020Z,9.60
2022-09-24T01:06:25.770Z,10.47
2022-09-24T01:08:54.500Z,11.47
2022-09-24T01:11:28.478Z,10.63
2022-09-24T01:14:14.767Z,11.13
2022-09-24T01:16:47.008Z,10.67
2022-09-24T01:19:25.592Z,10.60
2022-09-24T01:21:56.374Z,12.20
2022-09-24T01:24:40.430Z,10.73
2022-09-24T01:27:12.190Z,9.97
2022-09-24T01:29:46.000Z,10.77
2022-09-24T01:32:18.779Z,12.10
2022-09-24T01:34:49.549Z,11.37
2022-09-24T01:37:19.157Z,10.63
2022-09-24T01:39:48.769Z,11.63
2022-09-24T01:42:18.262Z,11.27
2022-09-24T01:44:50.318Z,9.80
2022-09-24T01:47:21.206Z,10.00
2022-09-24T01:49:51.466Z,11.40
2022-09-24T01:52:24.489Z,10.47
2022-09-24T01:54:54.021Z,10.43
2022-09-24T01:57:25.405Z,9.63
2022-09-24T01:59:58.104Z,9.60
2022-09-24T02:02:29.535Z,10.10
2022-09-24T02:05:00.686Z,9.53
2022-09-24T02:07:32.281Z,10.93
2022-09-24T02:10:03.995Z,10.97
2022-09-24T02:12:34.454Z,9.80
2022-09-24T02:15:09.077Z,11.17
2022-09-24T02:17:40.231Z,10.43
2022-09-24T02:20:11.423Z,10.33
2022-09-24T02:22:40.377Z,11.00
2022-09-24T02:25:10.891Z,10.10
2022-09-24T02:27:39.253Z,10.53
2022-09-24T02:30:10.971Z,10.83
2022-09-24T02:32:41.219Z,10.00
2022-09-24T02:35:10.264Z,10.27
2022-09-24T02:37:39.354Z,10.80
2022-09-24T02:40:09.138Z,11.90
2022-09-24T02:42:41.100Z,11.67
2022-09-24T02:45:11.753Z,10.53
2022-09-24T02:47:40.203Z,10.17
2022-09-24T02:50:09.093Z,9.67
2022-09-24T02:52:37.435Z,11.33
2022-09-24T02:55:06.913Z,9.20
2022-09-24T02:57:37.850Z,9.90
2022-09-24T03:00:07.087Z,10.73
2022-09-24T03:02:40.008Z,9.73
2022-09-24T03:05:09.201Z,9.60
2022-09-24T03:07:37.585Z,11.23
2022-09-24T03:10:06.307Z,10.00
2022-09-24T03:12:34.670Z,8.80
2022-09-24T03:15:03.074Z,9.10
2022-09-24T03:17:31.428Z,9.00
2022-09-24T03:20:01.148Z,8.83
2022-09-24T03:22:29.580Z,10.50
2022-09-24T03:24:57.967Z,9.80
2022-09-24T03:27:26.343Z,8.77
2022-09-24T03:30:12.217Z,10.20
2022-09-24T03:32:40.689Z,10.17
2022-09-24T03:35:12.009Z,11.57
2022-09-24T03:37:47.069Z,10.70
2022-09-24T03:40:17.547Z,9.77
2022-09-24T03:42:45.923Z,8.97
2022-09-24T03:45:14.286Z,8.77
2022-09-24T03:47:42.953Z,10.27
2022-09-24T03:50:12.806Z,10.40
2022-09-24T03:52:41.262Z,10.50
2022-09-24T03:55:10.055Z,9.37
2022-09-24T03:57:38.425Z,9.80
2022-09-24T04:00:07.194Z,8.93
2022-09-24T04:02:36.313Z,9.77
2022-09-24T04:05:04.737Z,9.60
2022-09-24T04:07:36.638Z,11.57
2022-09-24T04:10:05.327Z,9.97
2022-09-24T04:12:33.790Z,11.60
2022-09-24T04:15:02.616Z,10.70
2022-09-24T04:17:31.331Z,11.13
2022-09-24T04:19:59.826Z,9.20
2022-09-24T04:22:29.154Z,10.67
2022-09-24T04:24:59.061Z,10.07
2022-09-24T04:27:27.449Z,9.73
2022-09-24T04:29:55.837Z,9.07
2022-09-24T04:32:27.242Z,10.20
2022-09-24T04:34:55.616Z,8.33
2022-09-24T04:37:26.830Z,8.87
2022-09-24T04:39:55.216Z,9.03
2022-09-24T04:42:24.995Z,9.07
2022-09-24T04:44:56.453Z,8.67
2022-09-24T04:47:25.908Z,9.57
2022-09-24T04:49:54.303Z,8.90
2022-09-24T04:52:29.715Z,9.93
2022-09-24T04:54:58.124Z,9.50
2022-09-24T04:57:33.018Z,9.03
2022-09-24T05:00:01.408Z,10.23
2022-09-24T05:02:30.007Z,10.20
2022-09-24T05:04:58.457Z,9.33
2022-09-24T05:07:26.937Z,9.23
2022-09-24T05:09:55.287Z,8.43
2022-09-24T05:12:23.630Z,10.63
2022-09-24T05:14:53.348Z,8.93
2022-09-24T05:17:21.701Z,8.50
2022-09-24T05:19:50.095Z,10.17
2022-09-24T05:22:18.451Z,9.53
2022-09-24T05:24:46.875Z,9.60
2022-09-24T05:27:14.309Z,8.80
2022-09-24T05:29:44.072Z,9.10
2022-09-24T05:32:15.226Z,8.43
2022-09-24T05:34:44.601Z,8.90
2022-09-24T05:37:13.679Z,10.37
2022-09-24T05:39:42.251Z,9.77
2022-09-24T05:42:13.897Z,8.77
2022-09-24T05:44:46.416Z,9.20
2022-09-24T05:47:18.321Z,8.70
2022-09-24T05:49:46.689Z,9.53
2022-09-24T05:52:15.184Z,8.50
2022-09-24T05:54:43.557Z,8.67
2022-09-24T05:57:15.535Z,9.23
2022-09-24T05:59:43.891Z,9.60
2022-09-24T06:02:12.707Z,7.87
2022-09-24T06:04:43.245Z,8.43
2022-09-24T06:07:11.795Z,8.07
2022-09-24T06:09:40.819Z,9.30
2022-09-24T06:12:12.236Z,9.43
2022-09-24T06:14:41.329Z,9.27
2022-09-24T06:17:09.676Z,8.23
2022-09-24T06:19:39.060Z,8.50
2022-09-24T06:22:08.744Z,9.77
2022-09-24T06:24:39.148Z,8.77
2022-09-24T06:27:07.453Z,8.50
2022-09-24T06:29:35.791Z,8.60
2022-09-24T06:32:04.227Z,8.27
2022-09-24T06:34:32.724Z,8.67
2022-09-24T06:37:01.184Z,8.77
2022-09-24T06:39:30.962Z,9.83
2022-09-24T06:41:59.369Z,8.10
2022-09-24T06:44:34.610Z,9.00
2022-09-24T06:47:03.094Z,8.60
2022-09-24T06:49:34.327Z,9.50
2022-09-24T06:52:03.097Z,9.30
2022-09-24T06:54:33.115Z,11.27
2022-09-24T06:57:01.543Z,9.80
2022-09-24T06:59:30.024Z,8.30
2022-09-24T07:01:58.419Z,9.57
2022-09-24T07:04:26.854Z,10.10
2022-09-24T07:07:12.974Z,9.40
2022-09-24T07:09:42.739Z,11.73
2022-09-24T07:12:11.047Z,13.67
2022-09-24T07:14:39.394Z,11.47
2022-09-24T07:17:07.719Z,10.13
2022-09-24T07:19:36.069Z,8.63
2022-09-24T07:22:04.441Z,8.97
2022-09-24T07:24:32.811Z,8.93
2022-09-24T07:27:02.509Z,8.13
2022-09-24T07:29:30.937Z,8.10
2022-09-24T07:31:59.280Z,7.13
2022-09-24T07:34:27.720Z,7.87
2022-09-24T07:36:56.877Z,7.83
2022-09-24T07:39:25.253Z,8.47
2022-09-24T07:41:54.507Z,20.23
2022-09-24T07:44:24.564Z,14.33
2022-09-24T07:46:53.152Z,15.00
2022-09-24T07:49:21.762Z,12.80
2022-09-24T07:51:50.320Z,12.50
2022-09-24T07:54:18.867Z,9.43
2022-09-24T07:56:47.298Z,9.67
2022-09-24T07:59:15.792Z,9.07
2022-09-24T08:01:45.630Z,8.30
2022-09-24T08:04:14.156Z,7.63
2022-09-24T08:06:47.394Z,8.13
2022-09-24T08:09:17.016Z,7.53
2022-09-24T08:11:45.632Z,8.13
2022-09-24T08:14:14.012Z,7.43
2022-09-24T08:16:42.361Z,7.87
2022-09-24T08:19:14.222Z,7.57
2022-09-24T08:21:42.888Z,7.00
2022-09-24T08:24:11.311Z,7.60
2022-09-24T08:26:39.673Z,7.23
2022-09-24T08:29:08.129Z,7.00
2022-09-24T08:31:37.341Z,6.30
2022-09-24T08:34:05.827Z,6.67
2022-09-24T08:36:38.338Z,6.13
2022-09-24T08:39:09.183Z,7.40
2022-09-24T08:41:49.165Z,6.33
2022-09-24T08:44:39.904Z,6.50
2022-09-24T08:47:24.613Z,5.83
2022-09-24T08:49:56.720Z,5.63
2022-09-24T08:52:32.369Z,6.70
2022-09-24T08:55:03.647Z,5.63
2022-09-24T08:57:42.594Z,5.37
2022-09-24T09:00:15.666Z,5.70
2022-09-24T09:02:48.732Z,6.63
2022-09-24T09:05:20.493Z,6.73
2022-09-24T09:07:54.435Z,7.67
2022-09-24T09:10:27.857Z,7.23
2022-09-24T09:12:58.792Z,9.07
2022-09-24T09:15:29.047Z,8.03
2022-09-24T09:18:00.388Z,7.60
2022-09-24T09:20:32.005Z,8.87
2022-09-24T09:23:05.521Z,8.60
2022-09-24T09:25:37.311Z,8.73
2022-09-24T09:28:09.661Z,8.67
2022-09-24T09:30:43.574Z,9.70
2022-09-24T09:33:25.809Z,8.60
2022-09-24T09:35:57.398Z,9.60
2022-09-24T09:38:29.668Z,8.77
2022-09-24T09:41:02.082Z,8.70
2022-09-24T09:43:30.925Z,10.50
2022-09-24T09:46:08.477Z,8.83
2022-09-24T09:48:42.944Z,9.17
2022-09-24T09:51:18.745Z,8.50
2022-09-24T09:53:58.536Z,10.27
2022-09-24T09:56:27.852Z,7.90
2022-09-24T09:59:03.759Z,9.83
2022-09-24T10:01:33.535Z,9.90
2022-09-24T10:04:04.661Z,7.80
2022-09-24T10:06:33.919Z,9.27
2022-09-24T10:09:14.006Z,9.57
2022-09-24T10:11:43.206Z,6.90
2022-09-24T10:14:12.666Z,7.07
2022-09-24T10:16:41.516Z,7.20
2022-09-24T10:19:21.196Z,9.50
2022-09-24T10:21:49.611Z,7.63
2022-09-24T10:24:21.949Z,8.33
2022-09-24T10:26:50.700Z,7.53
2022-09-24T10:29:38.169Z,8.60
2022-09-24T10:32:06.778Z,8.70
2022-09-24T10:34:35.159Z,6.70
2022-09-24T10:37:10.170Z,7.27
2022-09-24T10:39:40.763Z,7.37
2022-09-24T10:42:24.435Z,7.00
2022-09-24T10:44:53.820Z,7.20
2022-09-24T10:47:27.384Z,8.33
2022-09-24T10:50:03.278Z,9.83
2022-09-24T10:52:38.321Z,7.77
2022-09-24T10:55:16.595Z,9.77
2022-09-24T10:57:51.611Z,8.77
2022-09-24T11:00:21.727Z,10.63
2022-09-24T11:03:01.587Z,9.20
2022-09-24T11:05:32.730Z,8.63
2022-09-24T11:08:09.757Z,8.23
2022-09-24T11:10:53.272Z,10.63
2022-09-24T11:13:27.499Z,8.53
2022-09-24T11:16:17.322Z,8.40
2022-09-24T11:18:53.439Z,7.67
2022-09-24T11:21:30.541Z,9.67
2022-09-24T11:24:04.255Z,9.73
2022-09-24T11:26:39.048Z,9.83
2022-09-24T11:29:19.645Z,8.20
2022-09-24T11:31:54.708Z,7.87
2022-09-24T11:34:30.186Z,9.80
2022-09-24T11:37:07.924Z,8.10
2022-09-24T11:39:42.545Z,8.60
2022-09-24T11:42:19.734Z,7.77
2022-09-24T11:45:02.347Z,8.10
2022-09-24T11:47:38.746Z,9.50
2022-09-24T11:50:22.734Z,7.73
2022-09-24T11:52:54.927Z,8.50
2022-09-24T11:55:25.837Z,7.07
2022-09-24T11:57:56.446Z,7.77
2022-09-24T12:00:29.758Z,9.03
2022-09-24T12:03:03.544Z,9.47
2022-09-24T12:05:35.352Z,7.33
2022-09-24T12:08:07.515Z,7.20
2022-09-24T12:10:39.519Z,7.37
2022-09-24T12:13:13.501Z,6.97
2022-09-24T12:15:48.407Z,7.23
2022-09-24T12:18:19.534Z,7.60
2022-09-24T12:20:50.734Z,6.83
2022-09-24T12:23:21.222Z,9.07
2022-09-24T12:25:51.461Z,7.10
2022-09-24T12:28:40.479Z,8.53
2022-09-24T12:31:33.492Z,9.47
2022-09-24T12:34:08.250Z,9.13
2022-09-24T12:36:43.983Z,7.30
2022-09-24T12:39:14.301Z,7.43
2022-09-24T12:41:44.626Z,8.10
2022-09-24T12:44:21.982Z,6.73
2022-09-24T12:46:53.564Z,7.53
2022-09-24T12:49:29.606Z,7.33
2022-09-24T12:51:58.555Z,9.23
2022-09-24T12:54:29.846Z,7.17
2022-09-24T12:57:09.005Z,8.00
2022-09-24T12:59:47.629Z,8.67
2022-09-24T13:02:18.869Z,7.53
2022-09-24T13:04:52.394Z,9.53
2022-09-24T13:07:30.808Z,8.50
2022-09-24T13:09:59.199Z,9.10
2022-09-24T13:12:33.131Z,6.80
2022-09-24T13:15:02.882Z,8.33
2022-09-24T13:17:34.452Z,8.07
2022-09-24T13:20:06.250Z,8.23
2022-09-24T13:22:42.813Z,7.37
2022-09-24T13:25:22.808Z,7.07
2022-09-24T13:27:58.557Z,7.60
2022-09-24T13:30:35.975Z,6.20
2022-09-24T13:33:07.707Z,7.10
2022-09-24T13:35:43.252Z,5.90
2022-09-24T13:38:17.912Z,6.20
2022-09-24T13:40:50.652Z,5.83
2022-09-24T13:43:21.784Z,4.57
2022-09-24T13:45:50.170Z,4.70
2022-09-24T13:48:27.116Z,4.60
2022-09-24T13:50:55.766Z,4.70
2022-09-24T13:53:28.015Z,4.40
2022-09-24T13:55:57.113Z,4.00
2022-09-24T13:58:29.224Z,3.90
2022-09-24T14:00:58.365Z,4.03
2022-09-24T14:03:30.177Z,4.00
2022-09-24T14:05:58.708Z,4.10
2022-09-24T14:08:28.522Z,4.07
2022-09-24T14:11:08.057Z,4.20
2022-09-24T14:13:41.647Z,4.57
2022-09-24T14:16:10.888Z,4.50
2022-09-24T14:18:41.107Z,5.07
2022-09-24T14:21:10.890Z,5.07
2022-09-24T14:23:41.343Z,5.07
2022-09-24T14:26:12.573Z,5.17
2022-09-24T14:28:41.067Z,4.33
2022-09-24T14:31:10.075Z,3.87
2022-09-24T14:33:39.340Z,4.63
2022-09-24T14:36:12.186Z,4.50
2022-09-24T14:38:53.258Z,4.50
2022-09-24T14:41:24.306Z,3.80
2022-09-24T14:43:54.637Z,3.80
2022-09-24T14:46:24.038Z,3.27
2022-09-24T14:48:53.336Z,3.80
2022-09-24T14:51:27.679Z,3.47
2022-09-24T14:54:00.183Z,3.30
2022-09-24T14:56:32.257Z,3.00
2022-09-24T14:59:01.238Z,3.07
2022-09-24T15:01:32.400Z,3.23
2022-09-24T15:04:02.678Z,3.80
2022-09-24T15:06:33.539Z,3.47
2022-09-24T15:09:03.733Z,2.90
2022-09-24T15:11:34.365Z,3.10
2022-09-24T15:14:04.236Z,2.67
2022-09-24T15:16:34.123Z,2.90
2022-09-24T15:19:16.839Z,2.73
2022-09-24T15:21:46.902Z,2.77
2022-09-24T15:24:15.401Z,2.63
2022-09-24T15:26:45.264Z,2.80
2022-09-24T15:29:20.016Z,3.37
2022-09-24T15:31:48.509Z,2.67
2022-09-24T15:34:20.167Z,2.70
2022-09-24T15:36:50.408Z,2.53
2022-09-24T15:39:20.410Z,3.23
2022-09-24T15:41:48.885Z,3.30
2022-09-24T15:44:20.679Z,2.87
2022-09-24T15:46:51.075Z,3.17
2022-09-24T15:49:22.120Z,3.53
2022-09-24T15:51:53.505Z,3.00
2022-09-24T15:54:24.843Z,2.93
2022-09-24T15:56:53.352Z,2.90
2022-09-24T15:59:22.632Z,3.00
2022-09-24T16:01:52.927Z,3.03
2022-09-24T16:04:21.370Z,3.37
2022-09-24T16:06:50.448Z,3.20
2022-09-24T16:09:20.210Z,3.97
2022-09-24T16:11:48.570Z,4.10
2022-09-24T16:14:16.942Z,3.67
2022-09-24T16:16:45.348Z,2.97
2022-09-24T16:19:13.743Z,3.33
2022-09-24T16:21:42.205Z,3.67
2022-09-24T16:24:10.629Z,3.30
2022-09-24T16:26:40.423Z,3.40
2022-09-24T16:29:11.892Z,3.37
2022-09-24T16:31:40.363Z,3.50
2022-09-24T16:34:08.831Z,3.60
2022-09-24T16:36:37.194Z,4.10
2022-09-24T16:39:06.123Z,3.80
2022-09-24T16:41:36.933Z,3.40
2022-09-24T16:44:06.996Z,3.60
2022-09-24T16:46:35.678Z,3.50
2022-09-24T16:49:04.103Z,3.93
2022-09-24T16:51:32.424Z,4.53
2022-09-24T16:54:00.837Z,5.00
2022-09-24T16:56:29.492Z,5.23
2022-09-24T16:58:58.237Z,4.90
2022-09-24T17:01:28.005Z,4.30
2022-09-24T17:03:57.262Z,3.67
2022-09-24T17:06:26.370Z,3.93
2022-09-24T17:09:12.918Z,4.00
2022-09-24T17:11:41.941Z,4.23
2022-09-24T17:14:12.481Z,3.87
2022-09-24T17:16:42.728Z,5.30
2022-09-24T17:19:11.940Z,5.53
2022-09-24T17:21:41.502Z,5.70
2022-09-24T17:24:10.294Z,6.13
2022-09-24T17:26:39.258Z,4.23
2022-09-24T17:29:07.677Z,6.03
2022-09-24T17:31:36.187Z,5.30
2022-09-24T17:34:07.102Z,4.73
2022-09-24T17:36:36.241Z,7.10
2022-09-24T17:39:06.457Z,6.80
2022-09-24T17:41:35.295Z,8.90
2022-09-24T17:44:03.685Z,7.03
2022-09-24T17:46:35.419Z,7.33
2022-09-24T17:49:03.851Z,9.00
2022-09-24T17:51:36.273Z,11.87
2022-09-24T17:54:06.202Z,15.23
2022-09-24T17:56:38.827Z,13.10
2022-09-24T17:59:07.759Z,12.33
2022-09-24T18:01:37.261Z,16.10
2022-09-24T18:04:07.001Z,13.03
2022-09-24T18:06:38.020Z,12.97
2022-09-24T18:09:07.219Z,12.60
2022-09-24T18:11:39.045Z,13.93
2022-09-24T18:14:07.390Z,17.00
2022-09-24T18:16:36.165Z,19.77
2022-09-24T18:19:04.641Z,14.40
2022-09-24T18:21:33.089Z,17.77
2022-09-24T18:24:03.066Z,13.57
2022-09-24T18:26:34.249Z,16.43
2022-09-24T18:29:04.469Z,13.47
2022-09-24T18:31:33.517Z,13.73
2022-09-24T18:34:04.018Z,13.23
2022-09-24T18:36:32.927Z,14.53
2022-09-24T18:39:02.726Z,14.20
2022-09-24T18:41:31.834Z,18.90
2022-09-24T18:44:00.719Z,15.83
2022-09-24T18:46:30.920Z,12.37
2022-09-24T18:48:59.827Z,13.00
2022-09-24T18:51:29.077Z,16.50
2022-09-24T18:53:58.328Z,17.00
2022-09-24T18:56:29.062Z,13.90
2022-09-24T18:58:58.181Z,17.23
2022-09-24T19:01:27.640Z,15.30
2022-09-24T19:03:56.504Z,16.93
2022-09-24T19:06:24.870Z,17.67
2022-09-24T19:08:53.243Z,24.97
2022-09-24T19:11:22.859Z,23.00
2022-09-24T19:13:53.420Z,18.93
2022-09-24T19:16:23.695Z,17.97
2022-09-24T19:18:52.799Z,16.93
2022-09-24T19:21:21.566Z,24.50
2022-09-24T19:23:50.539Z,21.20
2022-09-24T19:26:20.495Z,16.40
2022-09-24T19:28:50.895Z,22.37
2022-09-24T19:31:22.004Z,20.13
2022-09-24T19:33:51.652Z,16.33
2022-09-24T19:36:21.478Z,24.87
2022-09-24T19:38:50.244Z,20.33
2022-09-24T19:41:21.498Z,16.27
2022-09-24T19:43:50.872Z,17.30
2022-09-24T19:46:22.217Z,20.47
2022-09-24T19:48:51.076Z,20.07
2022-09-24T19:51:20.419Z,16.13
2022-09-24T19:53:49.227Z,20.80
2022-09-24T19:56:19.384Z,18.90
2022-09-24T19:58:49.771Z,18.43
2022-09-24T20:01:18.190Z,19.40
2022-09-24T20:03:48.496Z,22.33
2022-09-24T20:06:18.080Z,20.10
2022-09-24T20:08:46.691Z,26.37
2022-09-24T20:11:17.174Z,20.40
2022-09-24T20:13:46.674Z,20.60
2022-09-24T20:16:16.324Z,18.73
2022-09-24T20:18:44.996Z,22.80
2022-09-24T20:21:18.005Z,25.13
2022-09-24T20:23:46.466Z,20.70
2022-09-24T20:26:44.546Z,19.80
2022-09-24T20:29:13.772Z,22.43
2022-09-24T20:31:42.642Z,19.57
2022-09-24T20:34:11.154Z,20.23
2022-09-24T20:36:41.189Z,28.23
2022-09-24T20:39:09.611Z,21.10
2022-09-24T20:41:38.275Z,18.70
2022-09-24T20:44:06.681Z,28.60
2022-09-24T20:46:35.128Z,26.83
2022-09-24T20:49:04.120Z,21.63
2022-09-24T20:51:34.524Z,25.90
2022-09-24T20:54:04.619Z,20.37
2022-09-24T20:56:32.984Z,21.63
2022-09-24T20:59:01.900Z,23.00
2022-09-24T21:01:30.379Z,22.80
2022-09-24T21:03:58.800Z,23.20
2022-09-24T21:06:27.203Z,23.87
2022-09-24T21:08:55.630Z,23.37
2022-09-24T21:11:26.563Z,23.70
2022-09-24T21:13:56.067Z,22.70
2022-09-24T21:16:25.687Z,22.50
2022-09-24T21:18:55.224Z,22.60
2022-09-24T21:21:24.729Z,24.17
2022-09-24T21:23:53.882Z,23.23
2022-09-24T21:26:23.495Z,24.27
2022-09-24T21:28:54.403Z,19.80
2022-09-24T21:31:23.800Z,20.00
2022-09-24T21:33:53.565Z,23.67
2022-09-24T21:36:24.289Z,21.33
2022-09-24T21:38:55.043Z,22.30
2022-09-24T21:41:24.700Z,25.13
2022-09-24T21:43:55.492Z,24.83
2022-09-24T21:46:24.521Z,27.70
2022-09-24T21:48:53.948Z,22.23
2022-09-24T21:51:22.807Z,25.63
2022-09-24T21:53:51.699Z,28.73
2022-09-24T21:56:20.389Z,22.03
2022-09-24T21:58:49.075Z,24.03
2022-09-24T22:01:20.240Z,33.57
2022-09-24T22:03:49.760Z,29.17
2022-09-24T22:06:18.445Z,31.17
2022-09-24T22:08:47.417Z,22.17
2022-09-24T22:11:16.091Z,23.40
2022-09-24T22:13:45.055Z,22.23
2022-09-24T22:16:13.503Z,33.43
2022-09-24T22:18:43.208Z,26.67
2022-09-24T22:21:13.112Z,23.30
2022-09-24T22:23:41.673Z,25.07
2022-09-24T22:26:11.379Z,29.30
2022-09-24T22:28:39.776Z,24.40
2022-09-24T22:31:08.963Z,30.07
2022-09-24T22:33:55.197Z,22.00
2022-09-24T22:36:25.543Z,28.87
2022-09-24T22:38:54.836Z,27.30
2022-09-24T22:41:23.927Z,25.40
2022-09-24T22:43:52.875Z,29.37
2022-09-24T22:46:22.016Z,28.57
2022-09-24T22:48:50.448Z,23.63
2022-09-24T22:51:20.065Z,23.10
2022-09-24T22:53:50.142Z,22.50
2022-09-24T22:56:19.381Z,23.50
2022-09-24T22:58:52.023Z,25.20
2022-09-24T23:01:22.563Z,19.83
2022-09-24T23:03:51.538Z,22.63
2022-09-24T23:06:20.910Z,24.40
2022-09-24T23:08:51.162Z,22.57
2022-09-24T23:11:21.009Z,22.13
2022-09-24T23:13:53.221Z,20.37
2022-09-24T23:16:25.873Z,26.53
2022-09-24T23:18:55.350Z,30.03
2022-09-24T23:21:24.706Z,26.33
2022-09-24T23:23:58.270Z,24.70
2022-09-24T23:26:27.204Z,28.93
2022-09-24T23:28:55.927Z,17.83
2022-09-24T23:31:28.591Z,19.57
2022-09-24T23:33:57.749Z,21.17
2022-09-24T23:36:26.453Z,22.57
2022-09-24T23:38:54.801Z,20.83
2022-09-24T23:41:24.912Z,19.37
2022-09-24T23:43:53.463Z,29.10
2022-09-24T23:46:21.955Z,25.87
2022-09-24T23:48:50.510Z,21.30
2022-09-24T23:51:19.005Z,25.30
2022-09-24T23:53:47.406Z,19.90
2022-09-24T23:56:15.807Z,22.67
2022-09-24T23:58:46.009Z,17.13
